sensor_id;sensor_type;location;lat;lon;timestamp;P1;durP1;ratioP1;P2;durP2;ratioP2
7773;SDS011;3931;42.260;23.116;2023-08-30T00:00:50;24.00;;;10.77;;
7773;SDS011;3931;42.260;23.116;2023-08-30T00:03:16;26.17;;;9.30;;
7773;SDS011;3931;42.260;23.116;2023-08-30T00:05:42;22.63;;;10.50;;
7773;SDS011;3931;42.260;23.116;2023-08-30T00:08:08;18.93;;;11.70;;
7773;SDS011;3931;42.260;23.116;2023-08-30T00:10:34;20.27;;;11.83;;
7773;SDS011;3931;42.260;23.116;2023-08-30T00:13:03;25.13;;;11.20;;
7773;SDS011;3931;42.260;23.116;2023-08-30T00:15:29;16.57;;;10.70;;
7773;SDS011;3931;42.260;23.116;2023-08-30T00:17:55;19.33;;;11.47;;
7773;SDS011;3931;42.260;23.116;2023-08-30T00:20:22;22.10;;;11.30;;
7773;SDS011;3931;42.260;23.116;2023-08-30T00:22:48;16.77;;;11.30;;
7773;SDS011;3931;42.260;23.116;2023-08-30T00:25:14;19.37;;;11.13;;
7773;SDS011;3931;42.260;23.116;2023-08-30T00:27:40;31.47;;;12.40;;
7773;SDS011;3931;42.260;23.116;2023-08-30T00:30:08;18.10;;;11.33;;
7773;SDS011;3931;42.260;23.116;2023-08-30T00:32:34;21.47;;;11.47;;
7773;SDS011;3931;42.260;23.116;2023-08-30T00:35:00;19.30;;;12.60;;
7773;SDS011;3931;42.260;23.116;2023-08-30T00:37:27;20.80;;;12.83;;
7773;SDS011;3931;42.260;23.116;2023-08-30T00:39:53;24.10;;;12.73;;
7773;SDS011;3931;42.260;23.116;2023-08-30T00:42:19;21.10;;;11.87;;
7773;SDS011;3931;42.260;23.116;2023-08-30T00:44:45;19.70;;;11.90;;
7773;SDS011;3931;42.260;23.116;2023-08-30T00:47:11;18.00;;;11.50;;
7773;SDS011;3931;42.260;23.116;2023-08-30T00:49:38;20.80;;;11.33;;
7773;SDS011;3931;42.260;23.116;2023-08-30T00:52:05;21.20;;;12.37;;
7773;SDS011;3931;42.260;23.116;2023-08-30T00:54:33;20.80;;;11.10;;
7773;SDS011;3931;42.260;23.116;2023-08-30T00:57:00;18.57;;;11.40;;
7773;SDS011;3931;42.260;23.116;2023-08-30T00:59:26;21.43;;;10.87;;
7773;SDS011;3931;42.260;23.116;2023-08-30T01:01:53;18.93;;;10.60;;
7773;SDS011;3931;42.260;23.116;2023-08-30T01:04:20;22.43;;;11.20;;
7773;SDS011;3931;42.260;23.116;2023-08-30T01:06:47;17.40;;;12.00;;
7773;SDS011;3931;42.260;23.116;2023-08-30T01:09:13;16.37;;;10.93;;
7773;SDS011;3931;42.260;23.116;2023-08-30T01:11:42;21.23;;;11.70;;
7773;SDS011;3931;42.260;23.116;2023-08-30T01:14:15;27.93;;;11.43;;
7773;SDS011;3931;42.260;23.116;2023-08-30T01:16:46;17.40;;;11.07;;
7773;SDS011;3931;42.260;23.116;2023-08-30T01:19:17;19.43;;;10.10;;
7773;SDS011;3931;42.260;23.116;2023-08-30T01:22:00;20.23;;;10.80;;
7773;SDS011;3931;42.260;23.116;2023-08-30T01:24:37;20.70;;;10.97;;
7773;SDS011;3931;42.260;23.116;2023-08-30T01:27:11;17.77;;;10.70;;
7773;SDS011;3931;42.260;23.116;2023-08-30T01:29:38;18.47;;;10.80;;
7773;SDS011;3931;42.260;23.116;2023-08-30T01:32:08;23.10;;;9.73;;
7773;SDS011;3931;42.260;23.116;2023-08-30T01:34:35;20.60;;;10.60;;
7773;SDS011;3931;42.260;23.116;2023-08-30T01:37:04;26.90;;;10.60;;
7773;SDS011;3931;42.260;23.116;2023-08-30T01:39:31;15.80;;;10.80;;
7773;SDS011;3931;42.260;23.116;2023-08-30T01:41:58;14.93;;;11.03;;
7773;SDS011;3931;42.260;23.116;2023-08-30T01:44:26;23.53;;;10.40;;
7773;SDS011;3931;42.260;23.116;2023-08-30T01:46:53;20.40;;;12.17;;
7773;SDS011;3931;42.260;23.116;2023-08-30T01:49:20;19.07;;;13.00;;
7773;SDS011;3931;42.260;23.116;2023-08-30T01:51:47;22.33;;;12.33;;
7773;SDS011;3931;42.260;23.116;2023-08-30T01:54:15;19.10;;;13.00;;
7773;SDS011;3931;42.260;23.116;2023-08-30T01:56:43;24.67;;;13.27;;
7773;SDS011;3931;42.260;23.116;2023-08-30T01:59:10;20.73;;;12.20;;
7773;SDS011;3931;42.260;23.116;2023-08-30T02:01:36;21.13;;;14.13;;
7773;SDS011;3931;42.260;23.116;2023-08-30T02:04:03;22.50;;;14.17;;
7773;SDS011;3931;42.260;23.116;2023-08-30T02:06:30;23.33;;;14.67;;
7773;SDS011;3931;42.260;23.116;2023-08-30T02:09:01;23.83;;;13.63;;
7773;SDS011;3931;42.260;23.116;2023-08-30T02:11:34;22.13;;;13.77;;
7773;SDS011;3931;42.260;23.116;2023-08-30T02:14:01;29.60;;;14.00;;
7773;SDS011;3931;42.260;23.116;2023-08-30T02:16:34;19.67;;;13.40;;
7773;SDS011;3931;42.260;23.116;2023-08-30T02:19:02;31.43;;;16.10;;
7773;SDS011;3931;42.260;23.116;2023-08-30T02:21:29;21.33;;;13.57;;
7773;SDS011;3931;42.260;23.116;2023-08-30T02:23:55;23.83;;;13.50;;
7773;SDS011;3931;42.260;23.116;2023-08-30T02:26:21;23.90;;;12.10;;
7773;SDS011;3931;42.260;23.116;2023-08-30T02:28:47;23.90;;;12.90;;
7773;SDS011;3931;42.260;23.116;2023-08-30T02:31:14;25.80;;;12.67;;
7773;SDS011;3931;42.260;23.116;2023-08-30T02:33:40;24.87;;;12.90;;
7773;SDS011;3931;42.260;23.116;2023-08-30T02:36:06;26.10;;;12.40;;
7773;SDS011;3931;42.260;23.116;2023-08-30T02:38:33;28.77;;;12.23;;
7773;SDS011;3931;42.260;23.116;2023-08-30T02:40:59;27.37;;;13.03;;
7773;SDS011;3931;42.260;23.116;2023-08-30T02:43:25;18.27;;;11.00;;
7773;SDS011;3931;42.260;23.116;2023-08-30T02:45:51;20.63;;;13.13;;
7773;SDS011;3931;42.260;23.116;2023-08-30T02:48:17;23.13;;;11.40;;
7773;SDS011;3931;42.260;23.116;2023-08-30T02:50:43;17.80;;;11.40;;
7773;SDS011;3931;42.260;23.116;2023-08-30T02:53:10;19.90;;;12.20;;
7773;SDS011;3931;42.260;23.116;2023-08-30T02:55:36;21.33;;;11.20;;
7773;SDS011;3931;42.260;23.116;2023-08-30T02:58:02;22.60;;;12.10;;
7773;SDS011;3931;42.260;23.116;2023-08-30T03:00:28;19.40;;;10.90;;
7773;SDS011;3931;42.260;23.116;2023-08-30T03:02:55;16.23;;;9.87;;
7773;SDS011;3931;42.260;23.116;2023-08-30T03:05:21;15.87;;;10.80;;
7773;SDS011;3931;42.260;23.116;2023-08-30T03:07:47;18.83;;;9.93;;
7773;SDS011;3931;42.260;23.116;2023-08-30T03:10:13;21.17;;;10.50;;
7773;SDS011;3931;42.260;23.116;2023-08-30T03:12:39;19.90;;;10.37;;
7773;SDS011;3931;42.260;23.116;2023-08-30T03:15:06;23.10;;;10.90;;
7773;SDS011;3931;42.260;23.116;2023-08-30T03:17:32;25.13;;;10.40;;
7773;SDS011;3931;42.260;23.116;2023-08-30T03:19:58;17.43;;;10.97;;
7773;SDS011;3931;42.260;23.116;2023-08-30T03:22:25;18.10;;;10.53;;
7773;SDS011;3931;42.260;23.116;2023-08-30T03:24:51;20.13;;;11.20;;
7773;SDS011;3931;42.260;23.116;2023-08-30T03:27:17;18.60;;;10.07;;
7773;SDS011;3931;42.260;23.116;2023-08-30T03:29:44;13.63;;;9.70;;
7773;SDS011;3931;42.260;23.116;2023-08-30T03:32:13;21.27;;;10.70;;
7773;SDS011;3931;42.260;23.116;2023-08-30T03:34:43;22.73;;;10.90;;
7773;SDS011;3931;42.260;23.116;2023-08-30T03:37:09;19.87;;;10.87;;
7773;SDS011;3931;42.260;23.116;2023-08-30T03:39:35;19.10;;;11.27;;
7773;SDS011;3931;42.260;23.116;2023-08-30T03:42:01;15.67;;;11.07;;
7773;SDS011;3931;42.260;23.116;2023-08-30T03:44:28;18.70;;;10.50;;
7773;SDS011;3931;42.260;23.116;2023-08-30T03:46:54;17.50;;;11.03;;
7773;SDS011;3931;42.260;23.116;2023-08-30T03:49:22;17.40;;;10.53;;
7773;SDS011;3931;42.260;23.116;2023-08-30T03:51:48;52.77;;;11.87;;
7773;SDS011;3931;42.260;23.116;2023-08-30T03:54:14;18.70;;;10.20;;
7773;SDS011;3931;42.260;23.116;2023-08-30T03:56:41;21.83;;;11.83;;
7773;SDS011;3931;42.260;23.116;2023-08-30T03:59:07;28.17;;;10.67;;
7773;SDS011;3931;42.260;23.116;2023-08-30T04:01:35;36.23;;;10.37;;
7773;SDS011;3931;42.260;23.116;2023-08-30T04:04:01;18.63;;;10.40;;
7773;SDS011;3931;42.260;23.116;2023-08-30T04:06:27;40.93;;;11.73;;
7773;SDS011;3931;42.260;23.116;2023-08-30T04:08:53;19.57;;;10.90;;
7773;SDS011;3931;42.260;23.116;2023-08-30T04:11:19;19.77;;;11.17;;
7773;SDS011;3931;42.260;23.116;2023-08-30T04:13:45;28.20;;;11.90;;
7773;SDS011;3931;42.260;23.116;2023-08-30T04:16:11;16.00;;;12.37;;
7773;SDS011;3931;42.260;23.116;2023-08-30T04:18:38;20.30;;;14.00;;
7773;SDS011;3931;42.260;23.116;2023-08-30T04:21:04;25.60;;;12.70;;
7773;SDS011;3931;42.260;23.116;2023-08-30T04:23:32;27.70;;;12.80;;
7773;SDS011;3931;42.260;23.116;2023-08-30T04:25:58;22.13;;;12.77;;
7773;SDS011;3931;42.260;23.116;2023-08-30T04:28:24;25.70;;;12.00;;
7773;SDS011;3931;42.260;23.116;2023-08-30T04:30:52;21.67;;;13.20;;
7773;SDS011;3931;42.260;23.116;2023-08-30T04:33:19;23.63;;;13.40;;
7773;SDS011;3931;42.260;23.116;2023-08-30T04:35:49;20.00;;;13.87;;
7773;SDS011;3931;42.260;23.116;2023-08-30T04:38:15;25.50;;;12.97;;
7773;SDS011;3931;42.260;23.116;2023-08-30T04:40:42;25.30;;;12.90;;
7773;SDS011;3931;42.260;23.116;2023-08-30T04:43:08;33.10;;;13.00;;
7773;SDS011;3931;42.260;23.116;2023-08-30T04:45:34;26.70;;;12.40;;
7773;SDS011;3931;42.260;23.116;2023-08-30T04:48:00;22.77;;;13.83;;
7773;SDS011;3931;42.260;23.116;2023-08-30T04:50:26;25.07;;;12.23;;
7773;SDS011;3931;42.260;23.116;2023-08-30T04:52:53;22.70;;;12.40;;
7773;SDS011;3931;42.260;23.116;2023-08-30T04:55:19;20.17;;;11.87;;
7773;SDS011;3931;42.260;23.116;2023-08-30T04:57:45;25.43;;;12.17;;
7773;SDS011;3931;42.260;23.116;2023-08-30T05:00:13;15.03;;;11.53;;
7773;SDS011;3931;42.260;23.116;2023-08-30T05:02:39;22.67;;;12.70;;
7773;SDS011;3931;42.260;23.116;2023-08-30T05:05:08;23.13;;;11.20;;
7773;SDS011;3931;42.260;23.116;2023-08-30T05:07:35;24.97;;;9.93;;
7773;SDS011;3931;42.260;23.116;2023-08-30T05:10:02;21.50;;;12.00;;
7773;SDS011;3931;42.260;23.116;2023-08-30T05:12:28;23.40;;;11.00;;
7773;SDS011;3931;42.260;23.116;2023-08-30T05:14:54;15.63;;;11.40;;
7773;SDS011;3931;42.260;23.116;2023-08-30T05:17:20;26.70;;;10.27;;
7773;SDS011;3931;42.260;23.116;2023-08-30T05:19:46;20.60;;;10.60;;
7773;SDS011;3931;42.260;23.116;2023-08-30T05:22:12;21.67;;;7.77;;
7773;SDS011;3931;42.260;23.116;2023-08-30T05:24:38;19.90;;;9.97;;
7773;SDS011;3931;42.260;23.116;2023-08-30T05:27:05;17.60;;;8.27;;
7773;SDS011;3931;42.260;23.116;2023-08-30T05:29:32;18.93;;;8.47;;
7773;SDS011;3931;42.260;23.116;2023-08-30T05:31:58;22.00;;;8.53;;
7773;SDS011;3931;42.260;23.116;2023-08-30T05:34:24;21.53;;;7.27;;
7773;SDS011;3931;42.260;23.116;2023-08-30T05:36:52;21.13;;;8.10;;
7773;SDS011;3931;42.260;23.116;2023-08-30T05:39:18;15.83;;;7.73;;
7773;SDS011;3931;42.260;23.116;2023-08-30T05:41:44;20.43;;;6.90;;
7773;SDS011;3931;42.260;23.116;2023-08-30T05:44:11;12.23;;;6.40;;
7773;SDS011;3931;42.260;23.116;2023-08-30T05:46:37;16.55;;;7.28;;
7773;SDS011;3931;42.260;23.116;2023-08-30T05:49:03;13.75;;;6.43;;
7773;SDS011;3931;42.260;23.116;2023-08-30T05:51:29;18.85;;;7.40;;
7773;SDS011;3931;42.260;23.116;2023-08-30T05:53:55;16.50;;;8.15;;
7773;SDS011;3931;42.260;23.116;2023-08-30T05:56:21;10.68;;;6.03;;
7773;SDS011;3931;42.260;23.116;2023-08-30T05:58:47;12.18;;;6.03;;
7773;SDS011;3931;42.260;23.116;2023-08-30T06:01:14;12.13;;;5.90;;
7773;SDS011;3931;42.260;23.116;2023-08-30T06:03:43;11.73;;;5.20;;
7773;SDS011;3931;42.260;23.116;2023-08-30T06:06:10;21.05;;;6.43;;
7773;SDS011;3931;42.260;23.116;2023-08-30T06:08:36;8.30;;;5.38;;
7773;SDS011;3931;42.260;23.116;2023-08-30T06:11:03;10.57;;;5.47;;
7773;SDS011;3931;42.260;23.116;2023-08-30T06:13:29;16.98;;;5.65;;
7773;SDS011;3931;42.260;23.116;2023-08-30T06:15:55;19.50;;;6.15;;
7773;SDS011;3931;42.260;23.116;2023-08-30T06:18:21;14.27;;;6.95;;
7773;SDS011;3931;42.260;23.116;2023-08-30T06:20:47;12.90;;;6.10;;
7773;SDS011;3931;42.260;23.116;2023-08-30T06:23:14;19.98;;;9.05;;
7773;SDS011;3931;42.260;23.116;2023-08-30T06:25:43;14.63;;;7.15;;
7773;SDS011;3931;42.260;23.116;2023-08-30T06:28:09;12.70;;;5.80;;
7773;SDS011;3931;42.260;23.116;2023-08-30T06:30:35;18.20;;;6.13;;
7773;SDS011;3931;42.260;23.116;2023-08-30T06:33:03;13.00;;;6.63;;
7773;SDS011;3931;42.260;23.116;2023-08-30T06:35:30;8.53;;;5.27;;
7773;SDS011;3931;42.260;23.116;2023-08-30T06:37:56;19.33;;;14.53;;
7773;SDS011;3931;42.260;23.116;2023-08-30T06:40:22;14.13;;;6.67;;
7773;SDS011;3931;42.260;23.116;2023-08-30T06:42:48;15.97;;;10.37;;
7773;SDS011;3931;42.260;23.116;2023-08-30T06:45:14;12.43;;;7.60;;
7773;SDS011;3931;42.260;23.116;2023-08-30T06:47:41;14.00;;;5.67;;
7773;SDS011;3931;42.260;23.116;2023-08-30T06:50:07;25.93;;;6.77;;
7773;SDS011;3931;42.260;23.116;2023-08-30T06:52:35;12.70;;;5.93;;
7773;SDS011;3931;42.260;23.116;2023-08-30T06:55:02;15.60;;;5.93;;
7773;SDS011;3931;42.260;23.116;2023-08-30T06:57:28;18.30;;;6.57;;
7773;SDS011;3931;42.260;23.116;2023-08-30T06:59:54;11.40;;;5.47;;
7773;SDS011;3931;42.260;23.116;2023-08-30T07:02:20;13.20;;;6.20;;
7773;SDS011;3931;42.260;23.116;2023-08-30T07:04:46;12.30;;;5.80;;
7773;SDS011;3931;42.260;23.116;2023-08-30T07:07:12;17.60;;;7.00;;
7773;SDS011;3931;42.260;23.116;2023-08-30T07:09:39;12.60;;;6.03;;
7773;SDS011;3931;42.260;23.116;2023-08-30T07:12:07;12.40;;;6.83;;
7773;SDS011;3931;42.260;23.116;2023-08-30T07:14:33;12.70;;;6.90;;
7773;SDS011;3931;42.260;23.116;2023-08-30T07:16:59;36.00;;;9.20;;
7773;SDS011;3931;42.260;23.116;2023-08-30T07:19:25;12.00;;;7.40;;
7773;SDS011;3931;42.260;23.116;2023-08-30T07:21:51;9.40;;;6.67;;
7773;SDS011;3931;42.260;23.116;2023-08-30T07:24:17;18.23;;;7.00;;
7773;SDS011;3931;42.260;23.116;2023-08-30T07:26:44;25.40;;;7.30;;
7773;SDS011;3931;42.260;23.116;2023-08-30T07:29:10;14.30;;;7.20;;
7773;SDS011;3931;42.260;23.116;2023-08-30T07:31:36;14.20;;;8.13;;
7773;SDS011;3931;42.260;23.116;2023-08-30T07:34:02;13.40;;;8.57;;
7773;SDS011;3931;42.260;23.116;2023-08-30T07:36:29;15.70;;;7.70;;
7773;SDS011;3931;42.260;23.116;2023-08-30T07:38:57;14.73;;;6.93;;
7773;SDS011;3931;42.260;23.116;2023-08-30T07:41:23;13.27;;;7.60;;
7773;SDS011;3931;42.260;23.116;2023-08-30T07:43:50;14.20;;;6.83;;
7773;SDS011;3931;42.260;23.116;2023-08-30T07:46:16;12.87;;;6.97;;
7773;SDS011;3931;42.260;23.116;2023-08-30T07:48:42;21.37;;;7.30;;
7773;SDS011;3931;42.260;23.116;2023-08-30T07:51:08;14.77;;;8.07;;
7773;SDS011;3931;42.260;23.116;2023-08-30T07:53:34;13.80;;;7.37;;
7773;SDS011;3931;42.260;23.116;2023-08-30T07:56:00;10.00;;;7.13;;
7773;SDS011;3931;42.260;23.116;2023-08-30T07:58:26;12.70;;;7.05;;
7773;SDS011;3931;42.260;23.116;2023-08-30T08:00:53;21.08;;;7.13;;
7773;SDS011;3931;42.260;23.116;2023-08-30T08:03:20;9.52;;;5.75;;
7773;SDS011;3931;42.260;23.116;2023-08-30T08:05:46;14.05;;;6.00;;
7773;SDS011;3931;42.260;23.116;2023-08-30T08:08:13;14.93;;;6.22;;
7773;SDS011;3931;42.260;23.116;2023-08-30T08:10:39;13.60;;;5.82;;
7773;SDS011;3931;42.260;23.116;2023-08-30T08:13:05;17.40;;;6.13;;
7773;SDS011;3931;42.260;23.116;2023-08-30T08:15:31;8.75;;;5.13;;
7773;SDS011;3931;42.260;23.116;2023-08-30T08:17:59;12.80;;;6.10;;
7773;SDS011;3931;42.260;23.116;2023-08-30T08:20:25;10.70;;;5.00;;
7773;SDS011;3931;42.260;23.116;2023-08-30T08:22:51;12.45;;;4.75;;
7773;SDS011;3931;42.260;23.116;2023-08-30T08:25:17;12.38;;;4.75;;
7773;SDS011;3931;42.260;23.116;2023-08-30T08:27:45;8.98;;;4.78;;
7773;SDS011;3931;42.260;23.116;2023-08-30T08:30:11;9.27;;;4.40;;
7773;SDS011;3931;42.260;23.116;2023-08-30T08:32:38;11.85;;;5.90;;
7773;SDS011;3931;42.260;23.116;2023-08-30T08:35:05;6.32;;;5.00;;
7773;SDS011;3931;42.260;23.116;2023-08-30T08:37:32;10.82;;;4.57;;
7773;SDS011;3931;42.260;23.116;2023-08-30T08:39:58;21.88;;;5.35;;
7773;SDS011;3931;42.260;23.116;2023-08-30T08:42:24;9.20;;;5.30;;
7773;SDS011;3931;42.260;23.116;2023-08-30T08:44:52;12.43;;;5.65;;
7773;SDS011;3931;42.260;23.116;2023-08-30T08:47:20;12.73;;;6.15;;
7773;SDS011;3931;42.260;23.116;2023-08-30T08:49:47;12.88;;;5.35;;
7773;SDS011;3931;42.260;23.116;2023-08-30T08:52:15;10.38;;;5.45;;
7773;SDS011;3931;42.260;23.116;2023-08-30T08:54:41;20.30;;;5.35;;
7773;SDS011;3931;42.260;23.116;2023-08-30T08:57:08;10.73;;;5.10;;
7773;SDS011;3931;42.260;23.116;2023-08-30T08:59:34;11.07;;;5.75;;
7773;SDS011;3931;42.260;23.116;2023-08-30T09:02:01;11.35;;;5.45;;
7773;SDS011;3931;42.260;23.116;2023-08-30T09:04:28;8.55;;;5.75;;
7773;SDS011;3931;42.260;23.116;2023-08-30T09:06:56;9.57;;;4.82;;
7773;SDS011;3931;42.260;23.116;2023-08-30T09:09:25;9.18;;;5.45;;
7773;SDS011;3931;42.260;23.116;2023-08-30T09:11:51;8.52;;;4.47;;
7773;SDS011;3931;42.260;23.116;2023-08-30T09:14:17;8.48;;;4.60;;
7773;SDS011;3931;42.260;23.116;2023-08-30T09:16:53;11.07;;;4.10;;
7773;SDS011;3931;42.260;23.116;2023-08-30T09:19:20;15.07;;;4.55;;
7773;SDS011;3931;42.260;23.116;2023-08-30T09:21:50;5.13;;;3.13;;
7773;SDS011;3931;42.260;23.116;2023-08-30T09:24:17;3.92;;;3.08;;
7773;SDS011;3931;42.260;23.116;2023-08-30T09:26:46;5.50;;;3.50;;
7773;SDS011;3931;42.260;23.116;2023-08-30T09:29:13;10.82;;;3.50;;
7773;SDS011;3931;42.260;23.116;2023-08-30T09:31:39;5.78;;;3.15;;
7773;SDS011;3931;42.260;23.116;2023-08-30T09:34:07;7.53;;;3.55;;
7773;SDS011;3931;42.260;23.116;2023-08-30T09:36:33;6.30;;;3.60;;
7773;SDS011;3931;42.260;23.116;2023-08-30T09:39:02;10.43;;;4.32;;
7773;SDS011;3931;42.260;23.116;2023-08-30T09:41:30;3.78;;;3.35;;
7773;SDS011;3931;42.260;23.116;2023-08-30T09:43:58;5.25;;;3.67;;
7773;SDS011;3931;42.260;23.116;2023-08-30T09:46:24;6.88;;;3.80;;
7773;SDS011;3931;42.260;23.116;2023-08-30T09:48:50;6.15;;;3.13;;
7773;SDS011;3931;42.260;23.116;2023-08-30T09:51:18;3.85;;;2.83;;
7773;SDS011;3931;42.260;23.116;2023-08-30T09:53:49;5.25;;;3.45;;
7773;SDS011;3931;42.260;23.116;2023-08-30T09:56:19;7.63;;;3.33;;
7773;SDS011;3931;42.260;23.116;2023-08-30T09:58:47;5.97;;;3.75;;
7773;SDS011;3931;42.260;23.116;2023-08-30T10:01:15;12.68;;;3.67;;
7773;SDS011;3931;42.260;23.116;2023-08-30T10:03:42;10.75;;;3.45;;
7773;SDS011;3931;42.260;23.116;2023-08-30T10:06:08;5.57;;;3.70;;
7773;SDS011;3931;42.260;23.116;2023-08-30T10:08:34;4.75;;;3.55;;
7773;SDS011;3931;42.260;23.116;2023-08-30T10:11:02;3.80;;;3.05;;
7773;SDS011;3931;42.260;23.116;2023-08-30T10:13:29;8.15;;;3.65;;
7773;SDS011;3931;42.260;23.116;2023-08-30T10:15:58;6.40;;;3.40;;
7773;SDS011;3931;42.260;23.116;2023-08-30T10:18:29;6.80;;;3.88;;
7773;SDS011;3931;42.260;23.116;2023-08-30T10:20:57;5.78;;;3.95;;
7773;SDS011;3931;42.260;23.116;2023-08-30T10:23:25;9.32;;;4.07;;
7773;SDS011;3931;42.260;23.116;2023-08-30T10:25:53;8.60;;;4.15;;
7773;SDS011;3931;42.260;23.116;2023-08-30T10:28:21;13.25;;;4.60;;
7773;SDS011;3931;42.260;23.116;2023-08-30T10:30:48;7.22;;;3.80;;
7773;SDS011;3931;42.260;23.116;2023-08-30T10:33:14;8.05;;;3.50;;
7773;SDS011;3931;42.260;23.116;2023-08-30T10:35:47;5.78;;;3.47;;
7773;SDS011;3931;42.260;23.116;2023-08-30T10:38:23;6.32;;;3.33;;
7773;SDS011;3931;42.260;23.116;2023-08-30T10:40:51;5.95;;;3.42;;
7773;SDS011;3931;42.260;23.116;2023-08-30T10:43:17;10.90;;;3.70;;
7773;SDS011;3931;42.260;23.116;2023-08-30T10:45:59;5.80;;;3.45;;
7773;SDS011;3931;42.260;23.116;2023-08-30T10:48:33;4.25;;;3.05;;
7773;SDS011;3931;42.260;23.116;2023-08-30T10:51:01;6.78;;;4.35;;
7773;SDS011;3931;42.260;23.116;2023-08-30T10:53:29;9.40;;;4.40;;
7773;SDS011;3931;42.260;23.116;2023-08-30T10:56:09;6.68;;;4.20;;
7773;SDS011;3931;42.260;23.116;2023-08-30T10:58:39;10.90;;;4.30;;
7773;SDS011;3931;42.260;23.116;2023-08-30T11:01:07;10.57;;;3.63;;
7773;SDS011;3931;42.260;23.116;2023-08-30T11:03:37;4.00;;;3.53;;
7773;SDS011;3931;42.260;23.116;2023-08-30T11:06:04;4.25;;;3.33;;
7773;SDS011;3931;42.260;23.116;2023-08-30T11:08:30;18.63;;;3.75;;
7773;SDS011;3931;42.260;23.116;2023-08-30T11:11:02;5.47;;;3.60;;
7773;SDS011;3931;42.260;23.116;2023-08-30T11:13:30;5.88;;;3.80;;
7773;SDS011;3931;42.260;23.116;2023-08-30T11:15:59;6.32;;;3.65;;
7773;SDS011;3931;42.260;23.116;2023-08-30T11:18:26;6.38;;;3.85;;
7773;SDS011;3931;42.260;23.116;2023-08-30T11:20:53;7.13;;;4.45;;
7773;SDS011;3931;42.260;23.116;2023-08-30T11:23:24;6.00;;;3.40;;
7773;SDS011;3931;42.260;23.116;2023-08-30T11:25:50;7.20;;;4.55;;
7773;SDS011;3931;42.260;23.116;2023-08-30T11:28:21;7.40;;;3.70;;
7773;SDS011;3931;42.260;23.116;2023-08-30T11:30:47;6.50;;;4.47;;
7773;SDS011;3931;42.260;23.116;2023-08-30T11:33:16;8.65;;;4.53;;
7773;SDS011;3931;42.260;23.116;2023-08-30T11:35:42;7.20;;;4.07;;
7773;SDS011;3931;42.260;23.116;2023-08-30T11:38:08;17.65;;;5.00;;
7773;SDS011;3931;42.260;23.116;2023-08-30T11:40:35;6.38;;;4.70;;
7773;SDS011;3931;42.260;23.116;2023-08-30T11:43:02;10.23;;;4.45;;
7773;SDS011;3931;42.260;23.116;2023-08-30T11:45:29;9.43;;;4.93;;
7773;SDS011;3931;42.260;23.116;2023-08-30T11:47:57;13.52;;;5.15;;
7773;SDS011;3931;42.260;23.116;2023-08-30T11:50:24;10.80;;;4.95;;
7773;SDS011;3931;42.260;23.116;2023-08-30T11:52:50;9.70;;;4.97;;
7773;SDS011;3931;42.260;23.116;2023-08-30T11:55:17;12.38;;;5.50;;
7773;SDS011;3931;42.260;23.116;2023-08-30T11:57:44;6.85;;;4.40;;
7773;SDS011;3931;42.260;23.116;2023-08-30T12:00:13;14.23;;;4.60;;
7773;SDS011;3931;42.260;23.116;2023-08-30T12:02:40;7.15;;;4.80;;
7773;SDS011;3931;42.260;23.116;2023-08-30T12:05:10;8.48;;;5.25;;
7773;SDS011;3931;42.260;23.116;2023-08-30T12:07:36;11.02;;;6.50;;
7773;SDS011;3931;42.260;23.116;2023-08-30T12:10:04;13.50;;;6.00;;
7773;SDS011;3931;42.260;23.116;2023-08-30T12:12:30;13.43;;;5.00;;
7773;SDS011;3931;42.260;23.116;2023-08-30T12:14:57;6.80;;;5.07;;
7773;SDS011;3931;42.260;23.116;2023-08-30T12:17:23;21.70;;;4.90;;
7773;SDS011;3931;42.260;23.116;2023-08-30T12:19:54;10.63;;;5.70;;
7773;SDS011;3931;42.260;23.116;2023-08-30T12:22:21;5.55;;;4.25;;
7773;SDS011;3931;42.260;23.116;2023-08-30T12:24:47;16.52;;;5.18;;
7773;SDS011;3931;42.260;23.116;2023-08-30T12:27:13;8.50;;;4.18;;
7773;SDS011;3931;42.260;23.116;2023-08-30T12:29:40;16.63;;;4.72;;
7773;SDS011;3931;42.260;23.116;2023-08-30T12:32:07;11.20;;;5.00;;
7773;SDS011;3931;42.260;23.116;2023-08-30T12:34:33;8.07;;;4.15;;
7773;SDS011;3931;42.260;23.116;2023-08-30T12:36:59;8.57;;;4.63;;
7773;SDS011;3931;42.260;23.116;2023-08-30T12:39:27;7.22;;;5.10;;
7773;SDS011;3931;42.260;23.116;2023-08-30T12:41:53;9.73;;;4.57;;
7773;SDS011;3931;42.260;23.116;2023-08-30T12:44:19;11.25;;;4.85;;
7773;SDS011;3931;42.260;23.116;2023-08-30T12:46:45;5.63;;;3.50;;
7773;SDS011;3931;42.260;23.116;2023-08-30T12:49:12;8.30;;;4.63;;
7773;SDS011;3931;42.260;23.116;2023-08-30T12:51:38;12.77;;;5.20;;
7773;SDS011;3931;42.260;23.116;2023-08-30T12:54:04;11.27;;;5.53;;
7773;SDS011;3931;42.260;23.116;2023-08-30T12:56:30;9.88;;;4.55;;
7773;SDS011;3931;42.260;23.116;2023-08-30T12:58:56;13.10;;;5.00;;
7773;SDS011;3931;42.260;23.116;2023-08-30T13:01:23;7.93;;;4.60;;
7773;SDS011;3931;42.260;23.116;2023-08-30T13:03:49;8.93;;;4.70;;
7773;SDS011;3931;42.260;23.116;2023-08-30T13:06:16;10.48;;;4.95;;
7773;SDS011;3931;42.260;23.116;2023-08-30T13:08:42;13.85;;;4.80;;
7773;SDS011;3931;42.260;23.116;2023-08-30T13:11:08;7.35;;;4.88;;
7773;SDS011;3931;42.260;23.116;2023-08-30T13:13:34;7.15;;;4.07;;
7773;SDS011;3931;42.260;23.116;2023-08-30T13:16:00;10.85;;;4.95;;
7773;SDS011;3931;42.260;23.116;2023-08-30T13:18:26;8.90;;;4.65;;
7773;SDS011;3931;42.260;23.116;2023-08-30T13:20:53;11.15;;;4.43;;
7773;SDS011;3931;42.260;23.116;2023-08-30T13:23:20;17.13;;;4.25;;
7773;SDS011;3931;42.260;23.116;2023-08-30T13:25:47;22.73;;;5.22;;
7773;SDS011;3931;42.260;23.116;2023-08-30T13:28:14;11.23;;;4.78;;
7773;SDS011;3931;42.260;23.116;2023-08-30T13:30:43;9.27;;;4.97;;
7773;SDS011;3931;42.260;23.116;2023-08-30T13:33:10;11.20;;;4.07;;
7773;SDS011;3931;42.260;23.116;2023-08-30T13:35:38;6.50;;;3.70;;
7773;SDS011;3931;42.260;23.116;2023-08-30T13:38:04;12.05;;;4.00;;
7773;SDS011;3931;42.260;23.116;2023-08-30T13:40:31;8.05;;;4.03;;
7773;SDS011;3931;42.260;23.116;2023-08-30T13:42:57;12.55;;;3.88;;
7773;SDS011;3931;42.260;23.116;2023-08-30T13:45:23;6.45;;;3.72;;
7773;SDS011;3931;42.260;23.116;2023-08-30T13:47:49;8.65;;;4.10;;
7773;SDS011;3931;42.260;23.116;2023-08-30T13:50:18;8.35;;;4.07;;
7773;SDS011;3931;42.260;23.116;2023-08-30T13:52:44;5.47;;;3.45;;
7773;SDS011;3931;42.260;23.116;2023-08-30T13:55:10;7.13;;;3.53;;
7773;SDS011;3931;42.260;23.116;2023-08-30T13:57:37;6.38;;;2.72;;
7773;SDS011;3931;42.260;23.116;2023-08-30T14:00:03;6.95;;;3.25;;
7773;SDS011;3931;42.260;23.116;2023-08-30T14:02:34;5.88;;;2.80;;
7773;SDS011;3931;42.260;23.116;2023-08-30T14:05:00;5.90;;;2.40;;
7773;SDS011;3931;42.260;23.116;2023-08-30T14:07:27;6.88;;;2.35;;
7773;SDS011;3931;42.260;23.116;2023-08-30T14:09:53;7.13;;;2.80;;
7773;SDS011;3931;42.260;23.116;2023-08-30T14:12:19;7.72;;;3.03;;
7773;SDS011;3931;42.260;23.116;2023-08-30T14:14:46;11.68;;;2.65;;
7773;SDS011;3931;42.260;23.116;2023-08-30T14:17:12;5.07;;;2.42;;
7773;SDS011;3931;42.260;23.116;2023-08-30T14:19:38;7.10;;;2.45;;
7773;SDS011;3931;42.260;23.116;2023-08-30T14:22:04;4.47;;;2.63;;
7773;SDS011;3931;42.260;23.116;2023-08-30T14:24:31;4.43;;;2.38;;
7773;SDS011;3931;42.260;23.116;2023-08-30T14:26:57;6.45;;;2.55;;
7773;SDS011;3931;42.260;23.116;2023-08-30T14:29:23;5.50;;;2.47;;
7773;SDS011;3931;42.260;23.116;2023-08-30T14:31:50;8.00;;;2.50;;
7773;SDS011;3931;42.260;23.116;2023-08-30T14:34:16;6.45;;;3.42;;
7773;SDS011;3931;42.260;23.116;2023-08-30T14:36:42;5.63;;;2.67;;
7773;SDS011;3931;42.260;23.116;2023-08-30T14:39:08;5.65;;;2.83;;
7773;SDS011;3931;42.260;23.116;2023-08-30T14:41:34;4.20;;;2.63;;
7773;SDS011;3931;42.260;23.116;2023-08-30T14:44:02;6.05;;;2.88;;
7773;SDS011;3931;42.260;23.116;2023-08-30T14:46:28;7.45;;;2.80;;